createdAt,value
2023-03-31T00:02:13.465Z,6.70
2023-03-31T00:04:46.393Z,6.65
2023-03-31T00:07:14.824Z,6.65
2023-03-31T00:09:46.379Z,6.64
2023-03-31T00:12:14.897Z,6.69
2023-03-31T00:14:42.538Z,6.73
2023-03-31T00:17:10.751Z,6.78
2023-03-31T00:19:37.590Z,6.79
2023-03-31T00:22:05.520Z,6.77
2023-03-31T00:24:33.185Z,6.78
2023-03-31T00:27:04.206Z,6.82
2023-03-31T00:29:33.698Z,6.76
2023-03-31T00:32:00.641Z,6.59
2023-03-31T00:34:27.968Z,6.63
2023-03-31T00:36:56.769Z,6.62
2023-03-31T00:39:24.889Z,6.61
2023-03-31T00:41:51.796Z,6.48
2023-03-31T00:44:24.811Z,6.39
2023-03-31T00:47:18.320Z,6.35
2023-03-31T00:49:51.880Z,6.41
2023-03-31T00:52:37.564Z,6.44
2023-03-31T00:55:11.073Z,6.41
2023-03-31T00:57:39.713Z,6.38
2023-03-31T01:00:15.973Z,6.40
2023-03-31T01:02:53.280Z,6.40
2023-03-31T01:05:25.610Z,6.38
2023-03-31T01:07:53.235Z,6.41
2023-03-31T01:10:20.697Z,6.41
2023-03-31T01:12:50.727Z,6.38
2023-03-31T01:15:17.967Z,6.40
2023-03-31T01:17:45.189Z,6.38
2023-03-31T01:20:21.464Z,6.40
2023-03-31T01:23:07.216Z,6.43
2023-03-31T01:26:01.588Z,6.46
2023-03-31T01:28:47.960Z,6.48
2023-03-31T01:31:17.795Z,6.52
2023-03-31T01:34:23.841Z,6.51
2023-03-31T01:37:23.384Z,6.52
2023-03-31T01:40:01.420Z,6.52
2023-03-31T01:42:45.402Z,6.52
2023-03-31T01:45:15.112Z,6.52
2023-03-31T01:47:50.299Z,6.49
2023-03-31T01:50:28.810Z,6.41
2023-03-31T01:53:00.560Z,6.35
2023-03-31T01:55:39.809Z,6.34
2023-03-31T01:58:11.019Z,6.29
2023-03-31T02:00:52.100Z,6.35
2023-03-31T02:03:22.717Z,6.32
2023-03-31T02:05:58.529Z,6.29
2023-03-31T02:08:44.365Z,6.31
2023-03-31T02:11:11.534Z,6.28
2023-03-31T02:13:41.623Z,6.29
2023-03-31T02:16:12.800Z,6.27
2023-03-31T02:18:41.832Z,6.24
2023-03-31T02:21:08.999Z,6.16
2023-03-31T02:23:37.759Z,6.29
2023-03-31T02:26:08.792Z,6.14
2023-03-31T02:28:35.788Z,6.05
2023-03-31T02:31:18.508Z,6.07
2023-03-31T02:33:45.299Z,6.13
2023-03-31T02:36:12.209Z,6.20
2023-03-31T02:39:09.262Z,6.18
2023-03-31T02:41:36.647Z,6.11
2023-03-31T02:44:03.473Z,6.12
2023-03-31T02:46:31.393Z,6.06
2023-03-31T02:49:00.528Z,6.04
2023-03-31T02:51:33.513Z,6.02
2023-03-31T02:54:06.832Z,6.02
2023-03-31T02:57:07.779Z,5.90
2023-03-31T02:59:37.074Z,5.93
2023-03-31T03:02:26.240Z,5.96
2023-03-31T03:05:34.870Z,5.85
2023-03-31T03:08:17.934Z,5.75
2023-03-31T03:10:50.479Z,5.81
2023-03-31T03:13:43.582Z,5.82
2023-03-31T03:16:29.087Z,5.79
2023-03-31T03:19:00.832Z,5.75
2023-03-31T03:21:28.478Z,5.80
2023-03-31T03:23:55.444Z,5.74
2023-03-31T03:26:23.986Z,5.69
2023-03-31T03:28:51.551Z,5.66
2023-03-31T03:31:18.713Z,5.71
2023-03-31T03:33:45.661Z,5.59
2023-03-31T03:36:12.598Z,5.64
2023-03-31T03:38:39.420Z,5.66
2023-03-31T03:41:06.559Z,5.64
2023-03-31T03:43:33.334Z,5.60
2023-03-31T03:46:00.142Z,5.61
2023-03-31T03:48:26.927Z,5.63
2023-03-31T03:50:54.442Z,5.67
2023-03-31T03:53:21.145Z,5.64
2023-03-31T03:55:50.755Z,5.69
2023-03-31T03:58:19.752Z,5.52
2023-03-31T04:00:46.697Z,5.47
2023-03-31T04:03:14.094Z,5.44
2023-03-31T04:05:40.860Z,5.52
2023-03-31T04:08:08.945Z,5.55
2023-03-31T04:10:36.443Z,5.56
2023-03-31T04:13:03.282Z,5.43
2023-03-31T04:15:29.957Z,5.44
2023-03-31T04:17:58.455Z,5.46
2023-03-31T04:20:28.041Z,5.49
2023-03-31T04:22:54.872Z,5.48
2023-03-31T04:25:22.840Z,5.48
2023-03-31T04:27:56.028Z,5.46
2023-03-31T04:30:31.189Z,5.48
2023-03-31T04:33:00.356Z,5.41
2023-03-31T04:35:42.970Z,5.45
2023-03-31T04:38:10.087Z,5.44
2023-03-31T04:40:36.899Z,5.48
2023-03-31T04:43:03.567Z,5.39
2023-03-31T04:45:30.531Z,5.35
2023-03-31T04:47:57.353Z,5.38
2023-03-31T04:50:24.106Z,5.39
2023-03-31T04:52:50.903Z,5.43
2023-03-31T04:55:17.659Z,5.30
2023-03-31T04:57:44.440Z,5.36
2023-03-31T05:00:11.789Z,5.33
2023-03-31T05:02:38.576Z,5.32
2023-03-31T05:05:06.253Z,5.37
2023-03-31T05:07:32.945Z,5.36
2023-03-31T05:09:59.776Z,5.18
2023-03-31T05:12:26.532Z,5.26
2023-03-31T05:14:53.272Z,5.28
2023-03-31T05:17:20.047Z,5.33
2023-03-31T05:19:46.828Z,5.27
2023-03-31T05:22:13.702Z,5.31
2023-03-31T05:24:40.772Z,5.28
2023-03-31T05:27:07.520Z,5.31
2023-03-31T05:29:34.418Z,5.46
2023-03-31T05:32:01.988Z,5.47
2023-03-31T05:34:28.992Z,5.30
2023-03-31T05:36:56.018Z,5.39
2023-03-31T05:39:22.861Z,5.31
2023-03-31T05:41:49.610Z,5.36
2023-03-31T05:44:16.496Z,5.46
2023-03-31T05:46:43.254Z,5.44
2023-03-31T05:49:11.526Z,5.51
2023-03-31T05:51:38.292Z,5.48
2023-03-31T05:54:06.439Z,5.53
2023-03-31T05:56:33.319Z,5.49
2023-03-31T05:59:01.677Z,5.56
2023-03-31T06:01:30.178Z,5.47
2023-03-31T06:03:57.563Z,5.48
2023-03-31T06:06:25.656Z,5.47
2023-03-31T06:08:52.521Z,5.38
2023-03-31T06:11:21.107Z,5.40
2023-03-31T06:13:48.619Z,5.52
2023-03-31T06:16:17.457Z,5.62
2023-03-31T06:18:45.122Z,5.72
2023-03-31T06:21:14.669Z,5.56
2023-03-31T06:23:41.782Z,5.52
2023-03-31T06:26:08.949Z,5.51
2023-03-31T06:28:36.702Z,5.55
2023-03-31T06:31:12.826Z,5.69
2023-03-31T06:33:41.308Z,5.80
2023-03-31T06:36:09.346Z,5.84
2023-03-31T06:38:38.436Z,5.94
2023-03-31T06:41:06.906Z,6.05
2023-03-31T06:43:33.982Z,6.17
2023-03-31T06:46:01.456Z,6.18
2023-03-31T06:48:28.510Z,6.27
2023-03-31T06:50:55.946Z,6.33
2023-03-31T06:53:22.711Z,6.43
2023-03-31T06:55:49.412Z,6.85
2023-03-31T06:58:16.166Z,7.38
2023-03-31T07:00:43.031Z,7.05
2023-03-31T07:03:09.860Z,6.76
2023-03-31T07:05:36.770Z,6.62
2023-03-31T07:08:03.621Z,6.95
2023-03-31T07:10:31.916Z,7.24
2023-03-31T07:12:58.945Z,7.58
2023-03-31T07:15:26.385Z,7.08
2023-03-31T07:17:54.162Z,7.10
2023-03-31T07:20:21.180Z,6.91
2023-03-31T07:22:49.516Z,7.72
2023-03-31T07:25:17.455Z,7.96
2023-03-31T07:27:44.603Z,8.94
2023-03-31T07:30:20.936Z,9.42
2023-03-31T07:32:49.647Z,9.98
2023-03-31T07:35:17.444Z,9.92
2023-03-31T07:37:46.031Z,9.83
2023-03-31T07:40:18.805Z,9.52
2023-03-31T07:42:49.113Z,9.32
2023-03-31T07:45:16.855Z,9.17
2023-03-31T07:47:46.519Z,9.55
2023-03-31T07:50:15.108Z,10.27
2023-03-31T07:52:44.122Z,10.66
2023-03-31T07:55:12.536Z,11.20
2023-03-31T07:57:40.534Z,11.60
2023-03-31T08:00:09.667Z,11.48
2023-03-31T08:02:36.644Z,10.54
2023-03-31T08:05:04.073Z,11.24
2023-03-31T08:07:34.490Z,11.52
2023-03-31T08:10:01.516Z,11.74
2023-03-31T08:12:28.188Z,12.09
2023-03-31T08:14:54.924Z,12.00
2023-03-31T08:17:21.621Z,12.02
2023-03-31T08:19:48.403Z,11.74
2023-03-31T08:22:15.240Z,12.12
2023-03-31T08:24:41.984Z,12.47
2023-03-31T08:27:11.847Z,12.68
2023-03-31T08:29:39.195Z,12.27
2023-03-31T08:32:07.310Z,11.70
2023-03-31T08:34:34.381Z,11.49
2023-03-31T08:37:01.096Z,11.78
2023-03-31T08:39:27.860Z,11.44
2023-03-31T08:42:10.358Z,12.33
2023-03-31T08:44:55.802Z,12.45
2023-03-31T08:47:23.572Z,12.78
2023-03-31T08:49:52.876Z,13.13
2023-03-31T08:52:27.287Z,13.09
2023-03-31T08:54:57.775Z,12.10
2023-03-31T08:57:27.387Z,11.21
2023-03-31T08:59:58.418Z,11.51
2023-03-31T09:02:48.958Z,11.55
2023-03-31T09:05:39.226Z,11.22
2023-03-31T09:08:35.808Z,11.29
2023-03-31T09:11:13.959Z,10.73
2023-03-31T09:13:45.185Z,10.83
2023-03-31T09:16:41.539Z,10.62
2023-03-31T09:19:20.313Z,10.53
2023-03-31T09:21:51.788Z,10.34
2023-03-31T09:24:24.162Z,10.42
2023-03-31T09:27:08.787Z,10.48
2023-03-31T09:29:42.934Z,10.61
2023-03-31T09:32:30.798Z,11.21
2023-03-31T09:35:13.346Z,12.04
2023-03-31T09:37:40.109Z,12.32
2023-03-31T09:40:11.768Z,12.57
2023-03-31T09:42:38.844Z,13.20
2023-03-31T09:45:06.187Z,12.97
2023-03-31T09:47:40.011Z,12.96
2023-03-31T09:50:08.505Z,12.98
2023-03-31T09:52:42.341Z,12.73
2023-03-31T09:55:49.494Z,12.37
2023-03-31T09:58:17.348Z,11.98
2023-03-31T10:00:59.739Z,12.51
2023-03-31T10:03:29.574Z,12.57
2023-03-31T10:05:59.033Z,12.08
2023-03-31T10:08:39.863Z,12.60
2023-03-31T10:11:07.140Z,12.41
2023-03-31T10:13:47.551Z,12.68
2023-03-31T10:16:26.154Z,12.90
2023-03-31T10:18:52.991Z,13.03
2023-03-31T10:21:28.029Z,13.29
2023-03-31T10:23:55.293Z,13.28
2023-03-31T10:26:24.552Z,13.29
2023-03-31T10:28:52.905Z,12.60
2023-03-31T10:31:20.414Z,12.89
2023-03-31T10:33:49.322Z,13.26
2023-03-31T10:36:29.216Z,13.14
2023-03-31T10:38:56.481Z,12.95
2023-03-31T10:41:26.351Z,13.16
2023-03-31T10:43:55.137Z,13.14
2023-03-31T10:46:49.651Z,12.96
2023-03-31T10:49:25.035Z,13.21
2023-03-31T10:51:59.316Z,12.70
2023-03-31T10:54:26.846Z,12.58
2023-03-31T10:56:58.632Z,12.80
2023-03-31T10:59:53.942Z,12.90
2023-03-31T11:02:32.857Z,12.93
2023-03-31T11:05:13.601Z,12.98
2023-03-31T11:08:11.724Z,12.91
2023-03-31T11:11:06.886Z,12.94
2023-03-31T11:13:41.712Z,12.94
2023-03-31T11:16:27.355Z,12.94
2023-03-31T11:19:09.370Z,12.89
2023-03-31T11:21:47.383Z,12.82
2023-03-31T11:24:32.933Z,12.67
2023-03-31T11:27:22.183Z,12.59
2023-03-31T11:30:27.713Z,12.44
2023-03-31T11:33:25.633Z,12.33
2023-03-31T11:35:54.591Z,12.27
2023-03-31T11:38:47.783Z,12.09
2023-03-31T11:41:21.757Z,11.95
2023-03-31T11:43:51.363Z,12.01
2023-03-31T11:46:41.396Z,11.94
2023-03-31T11:49:30.389Z,11.90
2023-03-31T11:52:13.710Z,11.72
2023-03-31T11:54:52.239Z,11.73
2023-03-31T11:57:29.778Z,11.62
2023-03-31T12:00:16.651Z,11.72
2023-03-31T12:03:05.137Z,11.68
2023-03-31T12:05:33.977Z,11.67
2023-03-31T12:08:23.535Z,11.54
2023-03-31T12:11:02.172Z,11.43
2023-03-31T12:13:56.368Z,11.40
2023-03-31T12:16:28.635Z,11.23
2023-03-31T12:19:02.583Z,11.27
2023-03-31T12:21:29.975Z,11.25
2023-03-31T12:23:56.795Z,11.25
2023-03-31T12:26:38.774Z,11.30
2023-03-31T12:29:22.015Z,11.31
2023-03-31T12:31:49.779Z,11.52
2023-03-31T12:34:18.632Z,11.58
2023-03-31T12:37:04.605Z,11.59
2023-03-31T12:39:41.968Z,11.72
2023-03-31T12:42:14.748Z,11.85
2023-03-31T12:44:47.387Z,11.99
2023-03-31T12:47:24.586Z,12.06
2023-03-31T12:50:21.046Z,12.17
2023-03-31T12:53:06.179Z,12.12
2023-03-31T12:55:47.815Z,11.95
2023-03-31T12:58:32.647Z,11.92
2023-03-31T13:01:21.831Z,11.93
2023-03-31T13:04:11.462Z,11.95
2023-03-31T13:06:38.255Z,11.92
2023-03-31T13:09:13.926Z,11.86
2023-03-31T13:11:44.766Z,11.76
2023-03-31T13:14:22.511Z,11.70
2023-03-31T13:19:41.971Z,11.55
2023-03-31T13:22:29.169Z,11.57
2023-03-31T13:25:32.814Z,11.51
2023-03-31T13:28:29.013Z,11.47
2023-03-31T13:31:13.834Z,11.39
2023-03-31T13:33:44.697Z,11.40
2023-03-31T13:36:26.860Z,11.36
2023-03-31T13:39:17.874Z,11.31
2023-03-31T13:41:53.563Z,11.19
2023-03-31T13:44:38.871Z,11.08
2023-03-31T13:47:42.689Z,11.05
2023-03-31T13:50:09.381Z,10.96
2023-03-31T13:52:56.295Z,10.87
2023-03-31T13:55:59.181Z,10.76
2023-03-31T13:58:35.257Z,10.69
2023-03-31T14:01:26.995Z,10.62
2023-03-31T14:04:11.912Z,10.47
2023-03-31T14:06:44.441Z,10.41
2023-03-31T14:09:16.990Z,10.34
2023-03-31T14:11:43.733Z,10.33
2023-03-31T14:14:14.914Z,10.21
2023-03-31T14:16:56.421Z,10.18
2023-03-31T14:19:29.192Z,10.11
2023-03-31T14:22:02.363Z,9.99
2023-03-31T14:24:38.091Z,9.80
2023-03-31T14:27:25.657Z,9.73
2023-03-31T14:30:13.848Z,9.72
2023-03-31T14:33:07.076Z,9.69
2023-03-31T14:35:43.167Z,9.68
2023-03-31T14:38:23.085Z,9.62
2023-03-31T14:40:57.849Z,9.62
2023-03-31T14:43:28.147Z,9.73
2023-03-31T14:46:03.305Z,9.46
2023-03-31T14:48:33.621Z,9.42
2023-03-31T14:51:02.818Z,9.28
2023-03-31T14:53:29.644Z,9.16
2023-03-31T14:56:11.876Z,8.94
2023-03-31T14:58:49.832Z,8.91
2023-03-31T15:01:19.724Z,8.87
2023-03-31T15:03:47.124Z,8.41
2023-03-31T15:06:14.659Z,8.43
2023-03-31T15:08:42.219Z,8.32
2023-03-31T15:11:13.482Z,8.43
2023-03-31T15:13:53.046Z,8.29
2023-03-31T15:16:45.287Z,8.23
2023-03-31T15:19:33.633Z,8.16
2023-03-31T15:22:04.840Z,8.08
2023-03-31T15:24:32.205Z,8.21
2023-03-31T15:26:58.847Z,8.19
2023-03-31T15:29:43.126Z,8.26
2023-03-31T15:32:16.170Z,8.26
2023-03-31T15:34:43.580Z,8.28
2023-03-31T15:37:10.627Z,8.25
2023-03-31T15:39:38.127Z,8.21
2023-03-31T15:42:06.529Z,8.25
2023-03-31T15:44:57.686Z,8.19
2023-03-31T15:47:29.499Z,8.16
2023-03-31T15:50:13.416Z,8.13
2023-03-31T15:52:48.612Z,8.10
2023-03-31T15:58:16.889Z,8.15
2023-03-31T16:00:52.517Z,8.16
2023-03-31T16:03:24.954Z,8.15
2023-03-31T16:05:59.555Z,8.08
2023-03-31T16:08:42.897Z,7.97
2023-03-31T16:11:28.612Z,7.96
2023-03-31T16:13:57.576Z,7.97
2023-03-31T16:16:26.173Z,7.87
2023-03-31T16:19:04.283Z,7.61
2023-03-31T16:21:39.395Z,7.59
2023-03-31T16:24:06.704Z,7.57
2023-03-31T16:26:33.837Z,7.43
2023-03-31T16:29:01.203Z,7.25
2023-03-31T16:31:40.436Z,7.37
2023-03-31T16:34:09.755Z,7.24
2023-03-31T16:36:36.686Z,7.14
2023-03-31T16:39:05.401Z,7.18
2023-03-31T16:41:33.135Z,7.16
2023-03-31T16:44:00.146Z,7.24
2023-03-31T16:46:26.925Z,7.25
2023-03-31T16:48:54.308Z,7.13
2023-03-31T16:51:21.479Z,7.02
2023-03-31T16:53:48.457Z,7.09
2023-03-31T16:56:15.810Z,7.03
2023-03-31T16:58:42.899Z,7.02
2023-03-31T17:01:11.002Z,7.12
2023-03-31T17:03:40.097Z,7.03
2023-03-31T17:06:11.406Z,6.95
2023-03-31T17:08:39.890Z,6.97
2023-03-31T17:11:12.695Z,6.96
2023-03-31T17:13:40.307Z,6.95
2023-03-31T17:16:17.570Z,6.99
2023-03-31T17:18:49.297Z,6.93
2023-03-31T17:21:19.406Z,6.75
2023-03-31T17:23:46.691Z,6.68
2023-03-31T17:26:14.205Z,6.80
2023-03-31T17:28:41.676Z,6.82
2023-03-31T17:31:12.815Z,6.75
2023-03-31T17:33:40.438Z,6.70
2023-03-31T17:36:07.598Z,6.77
2023-03-31T17:38:34.857Z,6.81
2023-03-31T17:41:09.990Z,6.80
2023-03-31T17:43:38.372Z,6.77
2023-03-31T17:46:09.265Z,6.74
2023-03-31T17:48:39.290Z,6.68
2023-03-31T17:51:07.834Z,6.73
2023-03-31T17:53:35.710Z,6.67
2023-03-31T17:56:03.941Z,6.52
2023-03-31T17:58:31.247Z,6.67
2023-03-31T18:00:58.604Z,6.51
2023-03-31T18:03:28.368Z,6.65
2023-03-31T18:05:55.106Z,6.57
2023-03-31T18:08:22.009Z,6.50
2023-03-31T18:10:49.327Z,6.44
2023-03-31T18:13:16.781Z,6.47
2023-03-31T18:15:49.214Z,6.52
2023-03-31T18:18:16.256Z,6.45
2023-03-31T18:20:43.086Z,6.43
2023-03-31T18:23:09.973Z,6.34
2023-03-31T18:25:36.882Z,6.33
2023-03-31T18:28:03.983Z,6.16
2023-03-31T18:30:31.101Z,6.18
2023-03-31T18:32:58.566Z,6.17
2023-03-31T18:35:25.920Z,6.32
2023-03-31T18:37:52.777Z,6.33
2023-03-31T18:40:19.468Z,6.33
2023-03-31T18:42:46.530Z,6.38
2023-03-31T18:45:13.231Z,6.29
2023-03-31T18:47:40.244Z,6.35
2023-03-31T18:50:07.601Z,6.34
2023-03-31T18:52:36.095Z,6.35
2023-03-31T18:55:03.622Z,6.30
2023-03-31T18:57:30.810Z,6.25
2023-03-31T18:59:57.504Z,6.29
2023-03-31T19:02:24.337Z,6.33
2023-03-31T19:04:51.279Z,6.28
2023-03-31T19:07:18.101Z,6.23
2023-03-31T19:09:44.875Z,6.27
2023-03-31T19:12:12.014Z,6.25
2023-03-31T19:14:41.055Z,6.29
2023-03-31T19:17:07.850Z,6.26
2023-03-31T19:19:35.370Z,6.28
2023-03-31T19:22:02.134Z,6.31
2023-03-31T19:24:29.020Z,6.28
2023-03-31T19:26:57.058Z,6.30
2023-03-31T19:29:24.063Z,6.23
2023-03-31T19:31:51.950Z,6.26
2023-03-31T19:34:18.722Z,6.27
2023-03-31T19:36:46.360Z,6.34
2023-03-31T19:39:12.968Z,6.36
2023-03-31T19:41:39.660Z,6.31
2023-03-31T19:44:06.421Z,6.26
2023-03-31T19:46:33.243Z,6.25
2023-03-31T19:48:59.987Z,6.21
2023-03-31T19:51:27.677Z,6.25
2023-03-31T19:53:54.653Z,6.29
2023-03-31T19:56:25.186Z,6.36
2023-03-31T19:58:52.704Z,6.45
2023-03-31T20:01:27.421Z,6.30
2023-03-31T20:03:54.788Z,6.12
2023-03-31T20:06:26.778Z,6.07
2023-03-31T20:08:55.597Z,6.29
2023-03-31T20:11:22.459Z,6.30
2023-03-31T20:13:49.329Z,6.23
2023-03-31T20:16:19.313Z,6.07
2023-03-31T20:19:01.380Z,6.02
2023-03-31T20:21:29.508Z,6.18
2023-03-31T20:23:57.311Z,6.10
2023-03-31T20:26:26.782Z,6.15
2023-03-31T20:28:55.079Z,6.11
2023-03-31T20:31:23.946Z,6.08
2023-03-31T20:33:52.641Z,6.02
2023-03-31T20:36:21.799Z,6.01
2023-03-31T20:38:53.307Z,5.98
2023-03-31T20:41:22.632Z,5.97
2023-03-31T20:43:50.665Z,5.89
2023-03-31T20:46:17.694Z,5.92
2023-03-31T20:48:47.800Z,5.95
2023-03-31T20:51:16.673Z,5.94
2023-03-31T20:53:45.446Z,5.88
2023-03-31T20:56:14.767Z,5.87
2023-03-31T20:58:43.975Z,5.79
2023-03-31T21:01:12.187Z,5.84
2023-03-31T21:03:39.205Z,5.87
2023-03-31T21:06:11.432Z,5.75
2023-03-31T21:08:39.080Z,5.78
2023-03-31T21:11:06.523Z,5.72
2023-03-31T21:13:33.768Z,5.76
2023-03-31T21:16:01.199Z,5.73
2023-03-31T21:18:29.427Z,5.74
2023-03-31T21:21:01.082Z,5.66
2023-03-31T21:23:29.503Z,5.61
2023-03-31T21:25:58.190Z,5.64
2023-03-31T21:28:26.605Z,5.66
2023-03-31T21:31:07.413Z,5.58
2023-03-31T21:33:38.528Z,5.52
2023-03-31T21:36:06.797Z,5.50
2023-03-31T21:38:33.734Z,5.52
2023-03-31T21:41:08.441Z,5.52
2023-03-31T21:43:35.458Z,5.43
2023-03-31T21:46:02.691Z,5.52
2023-03-31T21:48:29.715Z,5.44
2023-03-31T21:51:00.665Z,5.33
2023-03-31T21:53:29.177Z,5.34
2023-03-31T21:55:57.442Z,5.40
2023-03-31T21:58:26.772Z,5.45
2023-03-31T22:00:56.146Z,5.41
2023-03-31T22:03:27.489Z,5.47
2023-03-31T22:05:58.991Z,5.46
2023-03-31T22:08:27.287Z,5.53
2023-03-31T22:10:54.795Z,5.51
2023-03-31T22:13:22.495Z,5.52
2023-03-31T22:15:49.351Z,5.50
2023-03-31T22:18:17.243Z,5.46
2023-03-31T22:20:44.141Z,5.51
2023-03-31T22:23:10.919Z,5.39
2023-03-31T22:25:37.857Z,5.38
2023-03-31T22:28:07.109Z,5.44
2023-03-31T22:30:34.211Z,5.47
2023-03-31T22:33:01.168Z,5.50
2023-03-31T22:35:28.453Z,5.43
2023-03-31T22:37:55.118Z,5.44
2023-03-31T22:40:21.990Z,5.49
2023-03-31T22:42:48.606Z,5.43
2023-03-31T22:45:15.843Z,5.46
2023-03-31T22:47:42.639Z,5.50
2023-03-31T22:50:10.635Z,5.54
2023-03-31T22:52:37.645Z,5.47
2023-03-31T22:55:05.546Z,5.39
2023-03-31T22:57:32.502Z,5.45
2023-03-31T22:59:59.321Z,5.47
2023-03-31T23:02:26.087Z,5.52
2023-03-31T23:04:52.859Z,5.49
2023-03-31T23:07:21.931Z,5.53
2023-03-31T23:09:49.100Z,5.54
2023-03-31T23:12:16.116Z,5.52
2023-03-31T23:14:42.969Z,5.58
2023-03-31T23:17:09.718Z,5.52
2023-03-31T23:19:37.873Z,5.56
2023-03-31T23:22:04.860Z,5.56
2023-03-31T23:24:31.707Z,5.58
2023-03-31T23:26:58.480Z,5.54
2023-03-31T23:29:25.897Z,5.40
2023-03-31T23:31:52.670Z,5.47
2023-03-31T23:34:19.695Z,5.44
2023-03-31T23:36:46.720Z,5.45
2023-03-31T23:39:13.557Z,5.52
2023-03-31T23:41:40.296Z,5.55
2023-03-31T23:44:07.567Z,5.57
2023-03-31T23:46:34.285Z,5.52
2023-03-31T23:49:02.882Z,5.50
2023-03-31T23:51:29.765Z,5.51
2023-03-31T23:53:56.576Z,5.51
2023-03-31T23:56:23.397Z,5.53
2023-03-31T23:58:50.131Z,5.47
